The Numbers - Box Office Data, Movie Stars, Idle Speculation
Audio Cables
Wednesday, July 23, 2014

I Love You, Man


The Numbers Rating: 8.70 (10 votes) Rate it - Rating Details
Rotten Tomatoes Rating: 83% - Fresh
Theatrical Performance
Domestic Box Office $71,440,011
International Box Office$20,289,492
Worldwide Box Office$91,729,503
Home Market Performance
Domestic DVD Sales: $26,388,414 Weekly Breakdown
For full financial breakdown, please contact our research team.
Production Budget:$40,000,000
Theatrical Release: March 20th, 2009 (Wide) by Paramount Pictures
Video Release: August 11th, 2009 by Dreamworks Video
MPAA Rating: R for pervasive language, including crude and sexual references
Source:Original Screenplay
Genre:Comedy
Production Method:Live Action
Creative Type:Contemporary Fiction

Cast

Paul Rudd    Peter Klaven
Jason Segel    Sydney Fife
Rashida Jones    Zooey Rice
Andy Samberg    Robbie Klaven
J.K. Simmons    Oswald Klaven
Jane Curtin    Joyce Klaven
Jon Favreau    Barry
Jaime Pressly    Denise

Production and Technical Credits

Director    John Hamburg
Screenwriter    John Hamburg
Story Creator    Larry Levin
Story Creator    John Hamburg
Producer    Donald De Line
Producer    John Hamburg
Executive Producer    Ivan Reitman
Executive Producer    Tom Pollock
Executive Producer    Jeffrey Clifford
Executive Producer    Andrew Haas
Executive Producer    Bill Johnson
Co-Producer    Anders Bard
Assistant Director    Scott Andrew Robertson
Unit Production Manager    Susan McNamara
Production Supervisor    Peter J. Novak
Production Designer    Andrew Laws
Art Director    Eric Sundahl
Set Decorator    Christopher Carlson
Cinematographer    Lawrence Sher
Costume Designer    Leesa Evans
Sound Mixer    Ken Segal
Re-recording Mixer    Marc Fishman
Re-recording Mixer    Adam Jenkins
Supervising Sound Editor    Darren King
Sound Editor    Yann Delpuech
Sound Editor    Keith Bilderbeck
Sound Editor    Jenna Schoenke
Sound Editor    Dan Yale
Sound Editor    Barbara Delpuech
Make-up and Hair Designer    Tracey Levy
Make-up and Hair Designer    Terrie Velazquez-Owen
Music Supervisor    Jennifer Hawks
Casting Director    Allison Jones
Stunt Coordinator    Alex Daniels
Set Designer    Easton Smith

Weekend Chart Record

DateRankGross% ChangeTheatersPer TheaterTotal GrossDays
2009/03/20 2 $17,810,270   2,711 $6,570   $17,810,270 3
2009/03/27 4 $12,671,533 -29% 2,717 $4,664   $37,078,306 10
2009/04/03 5 $7,722,469 -39% 2,829 $2,730   $49,159,559 17
2009/04/10 6 $6,280,790 -19% 2,643 $2,376   $58,865,219 24
2009/04/17 9 $3,327,668 -47% 2,202 $1,511   $64,614,979 31
2009/04/24 11 $1,952,921 -41% 1,563 $1,249   $67,809,860 38
2009/05/01 14 $738,275 -62% 685 $1,078   $69,308,548 45
2009/05/08 14 $507,667 -31% 407 $1,247   $70,095,671 52
2009/05/15 16 $401,520 -21% 340 $1,181   $70,686,399 59
2009/05/22 21 $226,103 -44% 274 $825   $71,055,065 66
2009/05/29 26 $136,228 -40% 228 $597   $71,347,010 73

Daily Chart Record

DateRankGross% ChangeTheatersPer TheaterTotal GrossDays
2009/03/20 2 $6,298,041   2,711 $2,323   $6,298,041 1
2009/03/21 2 $6,763,051 +7% 2,711 $2,495   $13,061,092 2
2009/03/22 2 $4,749,178 -30% 2,711 $1,752   $17,810,270 3
2009/03/23 2 $1,714,334 -64% 2,711 $632   $19,524,604 4
2009/03/24 2 $1,770,553 +3% 2,711 $653   $21,295,157 5
2009/03/25 2 $1,562,683 -12% 2,711 $576   $22,857,840 6
2009/03/26 2 $1,548,933 -1% 2,711 $571   $24,406,773 7
2009/03/27 4 $3,973,918 +157% 2,717 $1,463   $28,380,691 8
2009/03/28 4 $5,255,627 +32% 2,717 $1,934   $33,636,318 9
2009/03/29 4 $3,441,988 -35% 2,717 $1,267   $37,078,306 10
2009/03/30 3 $1,096,757 -68% 2,717 $404   $38,175,063 11
2009/03/31 3 $1,156,408 +5% 2,717 $426   $39,331,471 12
2009/04/01 3 $1,027,652 -11% 2,717 $378   $40,359,123 13
2009/04/02 2 $1,077,967 +5% 2,717 $397   $41,437,090 14
2009/04/03 5 $2,730,928 +153% 2,829 $965   $44,168,018 15
2009/04/04 5 $3,067,436 +12% 2,829 $1,084   $47,235,454 16
2009/04/05 4 $1,924,105 -37% 2,829 $680   $49,159,559 17
2009/04/06 4 $715,537 -63% 2,829 $253   $49,875,096 18
2009/04/07 3 $851,208 +19% 2,829 $301   $50,726,304 19
2009/04/08 3 $809,323 -5% 2,829 $286   $51,535,627 20
2009/04/09 3 $1,048,802 +30% 2,829 $371   $52,584,429 21
2009/04/10 7 $2,251,667 +115% 2,643 $852   $54,836,096 22
2009/04/11 6 $2,550,789 +13% 2,643 $965   $57,386,885 23
2009/04/12 6 $1,478,334 -42% 2,643 $559   $58,865,219 24
2009/04/13 7 $698,805 -53% 2,643 $264   $59,564,024 25
2009/04/14 6 $647,234 -7% 2,643 $245   $60,211,258 26
2009/04/15 6 $541,335 -16% 2,643 $205   $60,752,593 27
2009/04/16 5 $534,718 -1% 2,643 $202   $61,287,311 28
2009/04/17 9 $1,084,522 +103% 2,202 $493   $62,371,833 29
2009/04/18 9 $1,377,465 +27% 2,202 $626   $63,749,298 30
2009/04/19 9 $865,681 -37% 2,202 $393   $64,614,979 31
2009/04/20 8 $313,091 -64% 2,202 $142   $64,928,070 32
2009/04/21 8 $332,875 +6% 2,202 $151   $65,260,945 33
2009/04/22 9 $304,548 -9% 2,202 $138   $65,565,493 34
2009/04/23 9 $291,446 -4% 2,202 $132   $65,856,939 35
2009/04/24 11 $621,919 +113% 1,563 $398   $66,478,858 36
2009/04/25 12 $824,589 +33% 1,563 $528   $67,303,447 37
2009/04/26 11 $506,413 -39% 1,563 $324   $67,809,860 38
2009/04/27 12 $173,077 -66% 1,563 $111   $67,982,937 39
2009/04/28 11 $206,306 +19% 1,563 $132   $68,189,243 40
2009/04/29 11 $197,976 -4% 1,563 $127   $68,387,219 41
2009/04/30 11 $183,054 -8% 1,563 $117   $68,570,273 42
2009/05/01 14 $223,838 +22% 685 $327   $68,794,111 43
2009/05/02 14 $302,529 +35% 685 $442   $69,096,640 44
2009/05/03 13 $211,908 -30% 685 $309   $69,308,548 45
2009/05/04 13 $73,259 -65% 685 $107   $69,381,807 46
2009/05/05 12 $72,280 -1% 685 $106   $69,454,087 47
2009/05/06 12 $78,031 +8% 685 $114   $69,532,118 48
2009/05/07 13 $55,886 -28% 685 $82   $69,588,004 49
2009/05/08 - $172,781 +209% 407 $425   $69,760,785 50
2009/05/09 - $219,469 +27% 407 $539   $69,980,254 51
2009/05/10 - $115,417 -47% 407 $284   $70,095,671 52
2009/05/11 - $44,606 -61% 407 $110   $70,140,277 53
2009/05/12 - $50,615 +13% 407 $124   $70,190,892 54
2009/05/13 - $49,226 -3% 407 $121   $70,240,118 55
2009/05/14 - $44,761 -9% 407 $110   $70,284,879 56
2009/05/15 - $122,874 +175% 340 $361   $70,407,753 57
2009/05/16 - $163,189 +33% 340 $480   $70,570,942 58
2009/05/17 - $115,457 -29% 340 $340   $70,686,399 59
2009/05/18 - $53,064 -54% 340 $156   $70,739,463 60
2009/05/19 - $33,458 -37% 340 $98   $70,772,921 61
2009/05/20 - $31,682 -5% 340 $93   $70,804,603 62
2009/05/21 - $24,359 -23% 340 $72   $70,828,962 63
2009/05/22 - $65,842 +170% 274 $240   $70,894,804 64
2009/05/23 19 $82,384 +25% 274 $301   $70,977,188 65
2009/05/24 19 $77,877 -5% 274 $284   $71,055,065 66
2009/05/25 22 $54,224 -30% 274 $198   $71,109,289 67
2009/05/26 - $35,216 -35% 274 $129   $71,144,505 68
2009/05/27 - $32,655 -7% 274 $119   $71,177,160 69
2009/05/28 - $33,622 +3% 274 $123   $71,210,782 70
2009/05/29 - $42,970 +28% 228 $188   $71,253,752 71
2009/05/30 - $53,682 +25% 228 $235   $71,307,434 72
2009/05/31 - $39,576 -26% 228 $174   $71,347,010 73
2009/06/01 - $23,100 -42% 228 $101   $71,370,110 74
2009/06/02 - $25,300 +10% 228 $111   $71,395,410 75
2009/06/03 - $24,101 -5% 228 $106   $71,419,511 76
2009/06/04 - $20,500 -15% 228 $90   $71,440,011 77

Worldwide Weekly Chart Record

DateRank Gross% ChangeTheatersPer TheaterTotal Gross
2009-05-28 21 $381,820   274 $1,394 $81,418,241
2009-06-04 19 $822,125 +115.32% 712 $1,155 $82,240,366
2009-06-11 15 $2,714,985 +230.24% 442 $6,143 $84,955,351
2009-06-18 26 $2,001,544 -26.28% 699 $2,863 $15,516,884